Time;durP1;ratioP1;P1;durP2;ratioP2;P2;SDS_P1;SDS_P2;PMS_P1;PMS_P2;Temp;Humidity;BMP_temperature;BMP_pressure;BME280_temperature;BME280_humidity;BME280_pressure;Samples;Min_cycle;Max_cycle;Signal;HPM_P1;HPM_P2
2022/01/11 00:00:24;;;;;;;18.83;5.88;;;;;;;-6.02;95.58;100140.50;5092311;28;20067;-75
2022/01/11 00:02:53;;;;;;;18.58;6.60;;;;;;;-6.03;95.44;100142.28;5092140;28;20054;-73
2022/01/11 00:05:33;;;;;;;18.20;6.20;;;;;;;-6.05;96.15;100145.81;5092865;28;20117;-73
2022/01/11 00:08:00;;;;;;;23.88;7.90;;;;;;;-6.03;95.30;100146.63;5089808;28;20047;-73
2022/01/11 00:10:35;;;;;;;16.15;4.15;;;;;;;-6.00;96.37;100138.69;5074617;28;20141;-72
2022/01/11 00:13:01;;;;;;;18.58;6.38;;;;;;;-5.97;96.13;100143.88;5092262;28;20050;-74
2022/01/11 00:15:28;;;;;;;18.73;6.50;;;;;;;-5.96;96.15;100161.38;5075100;28;20123;-73
2022/01/11 00:17:57;;;;;;;17.58;6.60;;;;;;;-5.94;96.49;100157.84;5108781;28;20044;-72
2022/01/11 00:20:23;;;;;;;20.63;5.88;;;;;;;-5.98;96.52;100152.69;5092362;28;20075;-72
2022/01/11 00:25:41;;;;;;;20.48;6.18;;;;;;;-6.26;96.95;100105.94;5044940;28;20059;-74
2022/01/11 00:28:08;;;;;;;20.08;6.72;;;;;;;-5.98;97.17;100163.22;5106599;28;20052;-72
2022/01/11 00:30:40;;;;;;;21.45;6.75;;;;;;;-6.32;97.29;100116.63;5090889;28;20048;-73
2022/01/11 00:33:11;;;;;;;19.88;7.22;;;;;;;-6.10;97.53;100162.59;5073309;28;20093;-73
2022/01/11 00:35:45;;;;;;;21.00;7.63;;;;;;;-6.42;97.07;100130.88;5056598;28;20043;-74
2022/01/11 00:38:18;;;;;;;15.80;5.82;;;;;;;-6.19;96.59;100175.06;5091483;28;20044;-72
2022/01/11 00:40:48;;;;;;;15.52;5.72;;;;;;;-6.43;95.52;100145.78;5057452;28;20035;-73
2022/01/11 00:43:19;;;;;;;15.02;5.57;;;;;;;-6.40;95.50;100179.91;5111428;28;20044;-73
2022/01/11 00:45:46;;;;;;;17.98;5.97;;;;;;;-6.44;95.56;100185.25;5096634;28;20048;-72
2022/01/11 00:48:12;;;;;;;17.42;5.60;;;;;;;-6.87;95.25;100128.31;5096282;28;20732;-73
2022/01/11 00:50:37;;;;;;;13.57;4.88;;;;;;;-6.48;95.14;100194.09;5094583;28;20082;-72
2022/01/11 00:53:08;;;;;;;16.08;5.78;;;;;;;-6.97;96.21;100121.50;5075288;28;20071;-71
2022/01/11 00:55:34;;;;;;;17.25;4.78;;;;;;;-6.51;96.12;100194.16;5092785;28;20067;-71
2022/01/11 00:58:02;;;;;;;16.48;5.28;;;;;;;-6.60;96.79;100188.19;5093659;28;20048;-71
2022/01/11 01:00:33;;;;;;;17.02;5.85;;;;;;;-6.62;96.74;100197.88;5092238;28;20096;-72
2022/01/11 01:02:59;;;;;;;18.65;5.82;;;;;;;-6.63;97.27;100230.31;5091665;28;20051;-72
2022/01/11 01:05:25;;;;;;;17.45;6.32;;;;;;;-6.59;97.11;100221.47;5089872;28;20044;-71
2022/01/11 01:07:52;;;;;;;18.15;5.95;;;;;;;-6.57;96.92;100224.94;5106317;28;20056;-72
2022/01/11 01:10:26;;;;;;;20.25;6.50;;;;;;;-6.71;96.94;100226.97;5072618;28;20483;-71
2022/01/11 01:12:54;;;;;;;19.33;5.90;;;;;;;-6.70;96.81;100236.59;5088416;28;20384;-72
2022/01/11 01:15:21;;;;;;;15.90;5.30;;;;;;;-6.78;98.23;100237.63;5106661;28;20388;-72
2022/01/11 01:17:48;;;;;;;16.25;5.47;;;;;;;-6.75;97.98;100243.69;5106444;28;20066;-73
2022/01/11 01:20:14;;;;;;;20.35;5.85;;;;;;;-6.75;98.21;100233.19;5091070;28;20504;-71
2022/01/11 01:22:40;;;;;;;23.40;7.25;;;;;;;-6.99;97.93;100199.47;5072840;28;20044;-72
2022/01/11 01:25:07;;;;;;;18.35;6.43;;;;;;;-6.80;97.96;100240.28;5089320;28;20503;-71
2022/01/11 01:27:32;;;;;;;22.27;7.07;;;;;;;-6.77;98.28;100239.34;5072691;28;20051;-72
2022/01/11 01:29:58;;;;;;;24.98;6.57;;;;;;;-6.78;98.04;100249.00;5106226;28;20043;-73
2022/01/11 01:32:24;;;;;;;23.27;7.45;;;;;;;-6.87;98.51;100244.81;5106138;28;20558;-72
2022/01/11 01:34:51;;;;;;;22.38;7.75;;;;;;;-6.85;99.37;100247.38;5089196;28;20044;-73
2022/01/11 01:37:17;;;;;;;20.75;6.70;;;;;;;-6.81;99.21;100251.69;5072120;28;20419;-71
2022/01/11 01:39:44;;;;;;;22.33;8.25;;;;;;;-6.82;98.78;100257.84;5089503;28;20291;-72
2022/01/11 01:42:11;;;;;;;21.90;6.35;;;;;;;-6.91;98.69;100248.38;5106214;28;20043;-73
2022/01/11 01:44:40;;;;;;;21.95;8.07;;;;;;;-6.87;98.62;100264.97;5090410;28;20076;-72
2022/01/11 01:47:07;;;;;;;20.98;6.47;;;;;;;-6.91;98.81;100252.75;5090575;28;20070;-71
2022/01/11 01:49:34;;;;;;;18.52;6.85;;;;;;;-6.85;98.87;100268.41;5071712;28;20442;-72
2022/01/11 01:52:00;;;;;;;25.25;7.88;;;;;;;-6.88;99.29;100268.47;5105620;28;20146;-71
2022/01/11 01:54:26;;;;;;;20.02;6.10;;;;;;;-6.90;99.17;100259.75;5071917;28;20126;-71
2022/01/11 01:56:52;;;;;;;19.42;6.88;;;;;;;-6.97;98.85;100252.88;5090162;28;20039;-71
2022/01/11 01:59:18;;;;;;;23.30;8.15;;;;;;;-7.11;99.00;100239.97;5054837;28;20459;-72
2022/01/11 02:01:46;;;;;;;25.50;7.93;;;;;;;-6.88;98.41;100268.47;5072653;28;20139;-74
2022/01/11 02:04:15;;;;;;;24.58;7.82;;;;;;;-6.81;98.35;100264.81;5095631;28;20408;-72
2022/01/11 02:06:41;;;;;;;17.85;6.80;;;;;;;-6.87;98.59;100270.22;5077348;28;20134;-72
2022/01/11 02:09:07;;;;;;;19.33;7.47;;;;;;;-6.92;98.38;100269.41;5095231;28;20044;-74
2022/01/11 02:11:32;;;;;;;16.42;6.10;;;;;;;-6.94;98.18;100265.97;5095101;28;20082;-72
2022/01/11 02:13:59;;;;;;;18.17;6.18;;;;;;;-6.92;98.89;100269.41;5093346;28;20074;-72
2022/01/11 02:16:25;;;;;;;15.43;5.40;;;;;;;-6.93;97.29;100271.19;5095651;28;20071;-72
2022/01/11 02:18:55;;;;;;;22.10;6.60;;;;;;;-6.89;97.61;100262.34;5077409;28;20044;-73
2022/01/11 02:21:22;;;;;;;18.77;6.05;;;;;;;-7.05;97.48;100243.34;5093079;28;20048;-72
2022/01/11 02:23:52;;;;;;;19.20;6.65;;;;;;;-6.92;97.15;100267.66;5075910;28;20124;-71
2022/01/11 02:26:22;;;;;;;16.70;6.07;;;;;;;-6.95;96.90;100264.19;5094446;28;20108;-71
2022/01/11 02:28:48;;;;;;;18.95;6.43;;;;;;;-6.92;96.83;100272.03;5075894;28;20055;-72
2022/01/11 02:31:15;;;;;;;18.40;6.63;;;;;;;-7.11;97.10;100256.59;5075479;28;20160;-69
2022/01/11 02:33:46;;;;;;;16.15;5.90;;;;;;;-7.22;96.67;100237.53;5058879;28;20051;-72
2022/01/11 02:36:38;;;;;;;18.10;5.22;;;;;;;-6.99;96.06;100275.66;5089305;28;20383;-72
2022/01/11 02:39:26;;;;;;;16.40;6.15;;;;;;;-6.96;95.92;100280.88;5061610;28;20172;-71
2022/01/11 02:42:00;;;;;;;18.40;6.05;;;;;;;-7.05;95.37;100277.50;5075345;28;20124;-76
2022/01/11 02:44:34;;;;;;;17.35;5.88;;;;;;;-7.17;95.17;100275.06;5075108;28;20050;-72
2022/01/11 02:47:00;;;;;;;14.52;5.57;;;;;;;-7.28;95.33;100263.88;5092805;28;20039;-72
2022/01/11 02:49:28;;;;;;;12.93;4.28;;;;;;;-7.15;94.94;100291.69;5108041;28;20101;-69
2022/01/11 02:52:02;;;;;;;16.60;5.47;;;;;;;-7.18;95.27;100291.72;5075235;28;20116;-72
2022/01/11 02:54:28;;;;;;;17.15;5.68;;;;;;;-7.15;95.10;100291.69;5074822;28;20043;-72
2022/01/11 02:57:06;;;;;;;;;;;;;;;-7.13;94.03;100294.28;5090584;28;20051;-71
2022/01/11 02:59:31;;;;;;;13.65;4.90;;;;;;;-7.23;94.05;100293.56;5074574;28;19924;-71
2022/01/11 03:01:58;;;;;;;14.30;5.38;;;;;;;-7.22;93.76;100290.06;5093410;28;20066;-73
2022/01/11 03:04:28;;;;;;;16.08;5.07;;;;;;;-7.40;93.44;100269.34;5074831;28;20142;-72
2022/01/11 03:06:56;;;;;;;16.85;5.85;;;;;;;-7.46;92.67;100264.16;5108788;28;20098;-72
2022/01/11 03:09:27;;;;;;;14.52;5.97;;;;;;;-7.42;93.07;100297.34;5058185;28;20048;-73
2022/01/11 03:11:53;;;;;;;14.80;5.85;;;;;;;-7.69;93.03;100268.00;5092471;28;20365;-70
2022/01/11 03:14:18;;;;;;;15.75;5.22;;;;;;;-7.40;93.07;100306.94;5107235;28;20040;-71
2022/01/11 03:16:45;;;;;;;13.43;4.70;;;;;;;-7.42;92.78;100302.59;5074344;28;20048;-73
2022/01/11 03:19:11;;;;;;;13.50;4.68;;;;;;;-7.70;92.00;100279.41;5092697;28;20055;-71
2022/01/11 03:21:37;;;;;;;15.75;5.30;;;;;;;-7.73;92.25;100273.31;5108454;28;20044;-72
2022/01/11 03:24:03;;;;;;;14.20;5.05;;;;;;;-7.75;91.98;100273.34;5108586;28;20073;-73
2022/01/11 03:26:29;;;;;;;15.70;4.80;;;;;;;-7.57;91.98;100301.97;5057445;28;20433;-73
2022/01/11 03:28:54;;;;;;;12.43;3.42;;;;;;;-7.83;91.07;100270.81;5074204;28;20048;-72
2022/01/11 03:31:23;;;;;;;13.32;4.63;;;;;;;-7.57;91.15;100320.34;5074982;28;20040;-74
2022/01/11 03:33:50;;;;;;;12.82;3.92;;;;;;;-7.74;90.69;100295.22;5109097;28;20051;-71
2022/01/11 03:36:16;;;;;;;13.50;4.63;;;;;;;-7.67;90.62;100333.63;5108997;28;20108;-72
2022/01/11 03:38:43;;;;;;;12.68;4.22;;;;;;;-7.74;90.75;100338.06;5074753;28;20036;-74
2022/01/11 03:41:12;;;;;;;14.30;4.53;;;;;;;-7.80;90.44;100338.13;5091380;28;20048;-73
2022/01/11 03:43:39;;;;;;;13.77;4.47;;;;;;;-7.82;90.67;100339.94;5107899;28;20050;-73
2022/01/11 03:46:08;;;;;;;15.35;4.38;;;;;;;-7.89;90.63;100335.66;5073754;28;20582;-73
2022/01/11 03:48:34;;;;;;;13.95;4.72;;;;;;;-7.91;90.18;100342.66;5075171;28;20415;-74
2022/01/11 03:51:00;;;;;;;13.68;4.20;;;;;;;-7.95;90.32;100338.34;5109279;28;20500;-73
2022/01/11 03:53:51;;;;;;;11.60;4.40;;;;;;;-7.92;90.29;100348.81;5075224;28;20043;-74
2022/01/11 03:56:23;;;;;;;11.95;3.90;;;;;;;-7.95;89.96;100351.47;5074855;28;20060;-73
2022/01/11 03:59:06;;;;;;;15.25;5.50;;;;;;;-7.99;90.09;100348.00;5060197;28;20054;-73
2022/01/11 04:01:33;;;;;;;18.98;4.68;;;;;;;-7.91;90.48;100355.78;5085971;28;20040;-72
2022/01/11 04:03:59;;;;;;;11.95;4.15;;;;;;;-8.00;90.47;100351.53;5046139;28;20373;-73
2022/01/11 04:06:26;;;;;;;12.38;4.20;;;;;;;-7.94;89.36;100350.56;5073884;28;20140;-75
2022/01/11 04:08:52;;;;;;;14.38;4.10;;;;;;;-8.01;89.38;100353.28;5055382;28;20079;-73
2022/01/11 04:11:18;;;;;;;11.45;4.15;;;;;;;-8.01;89.26;100361.16;5068440;28;20661;-72
2022/01/11 04:13:44;;;;;;;14.75;5.15;;;;;;;-8.00;90.20;100377.75;5086625;28;20068;-74
2022/01/11 04:16:11;;;;;;;12.65;4.05;;;;;;;-8.26;89.80;100328.22;5052610;28;20049;-69
2022/01/11 04:18:37;;;;;;;11.52;3.58;;;;;;;-7.96;89.83;100375.97;5074947;28;20036;-73
2022/01/11 04:21:04;;;;;;;16.27;4.50;;;;;;;-8.19;89.59;100329.00;5079194;28;20048;-71
2022/01/11 04:23:30;;;;;;;11.60;3.90;;;;;;;-7.93;89.18;100378.53;5095699;28;20043;-74
2022/01/11 04:25:56;;;;;;;13.38;4.72;;;;;;;-8.05;88.64;100372.53;5080276;28;20471;-73
2022/01/11 04:28:23;;;;;;;10.88;3.97;;;;;;;-8.13;88.17;100387.50;5053918;28;20064;-71
2022/01/11 04:30:50;;;;;;;13.43;4.03;;;;;;;-8.28;88.03;100361.44;5074001;28;20185;-74
2022/01/11 04:33:16;;;;;;;12.80;4.07;;;;;;;-8.15;88.79;100389.28;5021211;28;20412;-74
2022/01/11 04:35:44;;;;;;;12.95;4.00;;;;;;;-8.13;88.82;100392.75;5037165;28;20058;-74
2022/01/11 04:38:11;;;;;;;13.00;4.07;;;;;;;-8.44;89.39;100344.19;5037940;28;20116;-74
2022/01/11 04:40:37;;;;;;;12.68;4.45;;;;;;;-8.14;89.49;100401.50;5036109;28;20072;-73
2022/01/11 04:43:04;;;;;;;14.32;4.68;;;;;;;-8.26;90.09;100399.03;5020492;28;20063;-74
2022/01/11 04:45:30;;;;;;;13.88;4.85;;;;;;;-8.27;90.62;100407.75;5054230;28;20397;-73
2022/01/11 04:47:56;;;;;;;13.48;4.40;;;;;;;-8.38;90.53;100404.38;5021038;28;20067;-74
2022/01/11 04:50:28;;;;;;;11.73;3.72;;;;;;;-8.38;90.62;100407.00;5053702;28;20045;-73
2022/01/11 04:52:54;;;;;;;13.40;3.70;;;;;;;-8.30;90.12;100413.91;5054119;28;20052;-74
2022/01/11 04:55:22;;;;;;;12.43;4.63;;;;;;;-8.38;89.54;100409.63;5056610;28;20102;-74
2022/01/11 04:57:48;;;;;;;11.57;3.90;;;;;;;-8.47;89.93;100407.97;5037330;28;20056;-74
2022/01/11 05:00:15;;;;;;;12.93;3.60;;;;;;;-8.46;90.15;100403.59;5037422;28;20044;-73
2022/01/11 05:02:42;;;;;;;12.48;4.30;;;;;;;-8.43;89.52;100419.31;5054076;28;20127;-74
2022/01/11 05:05:08;;;;;;;12.60;4.18;;;;;;;-8.46;89.78;100424.56;5036747;28;20075;-74
2022/01/11 05:07:35;;;;;;;11.70;3.72;;;;;;;-8.51;90.18;100432.47;5037252;28;20056;-74
2022/01/11 05:10:02;;;;;;;12.40;4.00;;;;;;;-8.46;90.42;100429.81;5021628;28;20040;-74
2022/01/11 05:12:28;;;;;;;13.63;5.00;;;;;;;-8.55;89.85;100423.78;5038586;28;20144;-74
2022/01/11 05:14:54;;;;;;;12.38;4.15;;;;;;;-8.52;89.82;100436.88;5005949;28;20575;-74
2022/01/11 05:17:20;;;;;;;10.85;3.60;;;;;;;-8.47;89.83;100438.56;5038466;28;20056;-74
2022/01/11 05:19:46;;;;;;;14.15;5.13;;;;;;;-8.41;90.39;100448.97;5057496;28;20044;-74
2022/01/11 05:22:11;;;;;;;12.68;4.45;;;;;;;-8.52;89.58;100447.34;5055693;28;20360;-75
2022/01/11 05:24:37;;;;;;;11.75;3.70;;;;;;;-8.62;90.37;100413.38;5037864;28;20052;-74
2022/01/11 05:27:03;;;;;;;11.70;3.85;;;;;;;-8.57;88.63;100438.63;5054222;28;20269;-74
2022/01/11 05:29:31;;;;;;;13.25;3.75;;;;;;;-8.64;88.66;100442.19;5053722;28;20127;-72
2022/01/11 05:31:58;;;;;;;12.23;3.95;;;;;;;-8.75;87.57;100412.56;5036776;28;20281;-73
2022/01/11 05:34:27;;;;;;;10.75;4.13;;;;;;;-8.88;87.76;100405.72;5037290;28;20140;-74
2022/01/11 05:36:53;;;;;;;11.70;3.63;;;;;;;-8.66;88.18;100459.69;5053846;28;20508;-74
2022/01/11 05:39:20;;;;;;;13.05;3.88;;;;;;;-8.58;89.17;100457.00;5041557;28;20139;-75
2022/01/11 05:41:47;;;;;;;12.32;4.30;;;;;;;-8.76;88.89;100447.53;5041953;28;20052;-74
2022/01/11 05:44:13;;;;;;;11.43;3.63;;;;;;;-8.85;88.65;100437.09;5057796;28;20424;-73
2022/01/11 05:46:39;;;;;;;13.45;4.55;;;;;;;-8.63;88.67;100469.25;5041298;28;20056;-73
2022/01/11 05:49:04;;;;;;;16.48;4.90;;;;;;;-8.86;88.70;100445.84;5040346;28;20388;-74
2022/01/11 05:51:31;;;;;;;12.77;5.10;;;;;;;-8.82;88.77;100463.28;5024071;28;20036;-74
2022/01/11 05:53:58;;;;;;;12.68;4.25;;;;;;;-8.78;88.93;100478.09;5040642;28;20048;-75
2022/01/11 05:56:24;;;;;;;13.45;4.63;;;;;;;-9.28;88.41;100395.50;5057587;28;20052;-74
2022/01/11 05:58:52;;;;;;;14.15;4.55;;;;;;;-9.02;88.55;100464.28;5041488;28;20049;-74
2022/01/11 06:01:18;;;;;;;13.80;4.40;;;;;;;-8.92;88.28;100483.44;5025178;28;20075;-75
2022/01/11 06:03:44;;;;;;;11.35;4.40;;;;;;;-8.92;88.27;100498.25;5056728;28;20045;-75
2022/01/11 06:06:10;;;;;;;15.68;4.38;;;;;;;-9.08;87.96;100459.06;5074973;28;20160;-74
2022/01/11 06:08:36;;;;;;;13.95;4.45;;;;;;;-8.94;87.78;100505.28;5056655;28;20414;-73
2022/01/11 06:11:04;;;;;;;11.95;4.18;;;;;;;-9.08;86.93;100487.88;5056794;28;20053;-73
2022/01/11 06:13:33;;;;;;;11.65;4.07;;;;;;;-9.02;86.57;100505.31;5040295;28;20063;-73
2022/01/11 06:15:59;;;;;;;10.93;4.13;;;;;;;-9.03;86.72;100512.31;5040113;28;20110;-74
2022/01/11 06:18:25;;;;;;;13.50;4.80;;;;;;;-9.06;86.09;100507.09;5023351;28;20435;-73
2022/01/11 06:21:04;;;;;;;9.82;3.65;;;;;;;-9.04;85.82;100523.66;5042578;28;20097;-73
2022/01/11 06:23:30;;;;;;;11.90;3.90;;;;;;;-9.13;86.57;100502.75;5058034;28;20049;-73
2022/01/11 06:25:56;;;;;;;11.68;3.17;;;;;;;-8.94;86.13;100515.75;5056694;28;20123;-74
2022/01/11 06:28:22;;;;;;;9.40;3.25;;;;;;;-9.05;85.10;100518.44;5056528;28;20063;-74
2022/01/11 06:30:48;;;;;;;13.38;3.72;;;;;;;-9.50;85.32;100444.47;5057383;28;20092;-75
2022/01/11 06:33:14;;;;;;;12.70;4.07;;;;;;;-9.36;84.21;100486.25;5024526;28;20568;-73
2022/01/11 06:35:40;;;;;;;12.90;3.17;;;;;;;-9.20;84.31;100523.75;5057404;28;20040;-74
2022/01/11 06:38:06;;;;;;;13.18;4.13;;;;;;;-9.17;84.07;100528.97;5074945;28;20109;-74
2022/01/11 06:40:32;;;;;;;17.90;4.10;;;;;;;-9.14;84.08;100535.06;5056354;28;20047;-74
2022/01/11 06:42:59;;;;;;;10.77;3.95;;;;;;;-9.04;84.64;100536.75;5040487;28;20089;-74
2022/01/11 06:45:26;;;;;;;12.50;4.25;;;;;;;-9.17;84.41;100537.69;5041562;28;20088;-74
2022/01/11 06:47:54;;;;;;;19.13;6.90;;;;;;;-9.45;84.59;100487.19;5056964;28;20139;-74
2022/01/11 06:50:20;;;;;;;17.48;5.88;;;;;;;-9.04;85.06;100534.13;5039729;28;20555;-75
2022/01/11 06:52:47;;;;;;;15.32;5.40;;;;;;;-9.05;84.30;100555.97;5057782;28;20079;-74
2022/01/11 06:55:13;;;;;;;12.98;4.90;;;;;;;-9.26;83.45;100519.38;5057662;28;20041;-75
2022/01/11 06:57:39;;;;;;;15.80;5.55;;;;;;;-9.56;83.49;100487.22;5024626;28;20049;-75
2022/01/11 07:00:08;;;;;;;17.48;5.90;;;;;;;-9.28;82.85;100552.56;5041720;28;20040;-75
2022/01/11 07:02:36;;;;;;;15.90;5.88;;;;;;;-9.42;82.88;100544.75;5059291;28;20049;-75
2022/01/11 07:05:20;;;;;;;14.30;5.07;;;;;;;-9.32;82.88;100561.31;5061784;28;20503;-75
2022/01/11 07:07:47;;;;;;;13.00;4.63;;;;;;;-9.66;82.33;100488.13;5044480;28;20052;-75
2022/01/11 07:10:15;;;;;;;13.80;5.40;;;;;;;-9.53;82.40;100563.09;5043172;28;20127;-75
2022/01/11 07:12:41;;;;;;;14.05;4.85;;;;;;;-9.40;82.54;100569.16;5026455;28;20141;-75
2022/01/11 07:15:08;;;;;;;16.13;5.10;;;;;;;-9.39;82.75;100575.28;5043467;28;20041;-75
2022/01/11 07:17:34;;;;;;;12.35;4.63;;;;;;;-9.40;82.15;100579.63;5041953;28;20068;-75
2022/01/11 07:20:00;;;;;;;14.88;4.53;;;;;;;-9.46;82.41;100577.06;5042859;28;20083;-75
2022/01/11 07:22:26;;;;;;;19.80;5.93;;;;;;;-9.68;82.34;100573.59;5042908;28;20448;-75
2022/01/11 07:24:52;;;;;;;18.60;5.18;;;;;;;-9.69;83.08;100553.53;5043583;28;20170;-74
2022/01/11 07:27:19;;;;;;;12.95;4.55;;;;;;;-9.47;82.55;100583.13;5043543;28;20415;-75
2022/01/11 07:29:46;;;;;;;13.30;4.45;;;;;;;-9.35;81.45;100590.13;5046522;28;20075;-74
2022/01/11 07:32:13;;;;;;;14.65;5.72;;;;;;;-9.48;81.37;100592.75;5063639;28;20109;-74
2022/01/11 07:34:39;;;;;;;15.63;5.15;;;;;;;-9.52;80.42;100606.72;5048498;28;20503;-73
2022/01/11 07:37:05;;;;;;;11.73;4.60;;;;;;;-9.58;80.27;100601.50;5047353;28;20130;-75
2022/01/11 07:39:33;;;;;;;14.38;4.32;;;;;;;-9.87;80.95;100548.31;5031053;28;20040;-75
2022/01/11 07:41:59;;;;;;;11.70;4.10;;;;;;;-9.54;81.29;100608.47;5060841;28;20073;-74
2022/01/11 07:44:51;;;;;;;12.40;3.80;;;;;;;-9.53;81.03;100604.97;5059601;28;20047;-74
2022/01/11 07:47:19;;;;;;;13.25;3.92;;;;;;;-9.53;80.81;100604.09;5057660;28;20111;-74
2022/01/11 07:49:47;;;;;;;12.82;4.20;;;;;;;-9.81;80.50;100561.41;5042039;28;20044;-74
2022/01/11 07:52:13;;;;;;;15.35;3.30;;;;;;;-9.70;80.23;100611.97;5042678;28;20045;-75
2022/01/11 07:54:40;;;;;;;10.65;2.88;;;;;;;-9.82;80.03;100606.75;5044590;28;20048;-74
2022/01/11 07:57:09;;;;;;;13.68;3.33;;;;;;;-9.95;79.44;100596.28;5026697;28;20531;-75
2022/01/11 07:59:35;;;;;;;12.40;3.45;;;;;;;-9.82;79.79;100625.06;5043402;28;20036;-76
2022/01/11 08:02:03;;;;;;;10.98;3.47;;;;;;;-10.10;79.60;100622.41;5041937;28;20554;-74
2022/01/11 08:04:31;;;;;;;10.80;3.03;;;;;;;-9.99;80.19;100615.44;5043053;28;20063;-74
2022/01/11 08:06:58;;;;;;;12.15;2.75;;;;;;;-9.92;79.37;100631.16;5059557;28;20074;-74
2022/01/11 08:09:37;;;;;;;10.85;3.70;;;;;;;-9.46;79.22;100621.53;5028106;28;20041;-75
2022/01/11 08:12:04;;;;;;;9.63;3.25;;;;;;;-9.14;75.83;100618.88;5058906;28;20045;-75
2022/01/11 08:14:30;;;;;;;10.75;3.30;;;;;;;-9.10;76.03;100620.59;5011337;28;20036;-74
2022/01/11 08:16:57;;;;;;;8.45;2.72;;;;;;;-9.44;74.28;100629.38;5040000;28;20083;-75
2022/01/11 08:19:25;;;;;;;11.43;3.40;;;;;;;-8.02;70.65;100632.22;5023790;28;20058;-74
2022/01/11 08:21:53;;;;;;;10.55;3.67;;;;;;;-8.43;67.29;100623.78;5039643;28;20052;-74
2022/01/11 08:24:22;;;;;;;10.60;2.97;;;;;;;-9.44;70.13;100629.38;5024063;28;20130;-75
2022/01/11 08:26:56;;;;;;;10.35;3.28;;;;;;;-10.04;71.46;100588.44;5039905;28;20412;-74
2022/01/11 08:29:23;;;;;;;9.35;2.90;;;;;;;-10.36;72.80;100590.19;5055479;28;20055;-74
2022/01/11 08:31:55;;;;;;;11.88;3.92;;;;;;;-10.62;73.67;100606.69;5056297;28;20167;-75
2022/01/11 08:34:21;;;;;;;10.35;3.08;;;;;;;-10.68;74.75;100573.56;5056403;28;20092;-75
2022/01/11 08:36:50;;;;;;;11.30;3.33;;;;;;;-10.43;74.87;100648.53;5023614;28;20051;-74
2022/01/11 08:39:18;;;;;;;12.07;2.72;;;;;;;-9.95;74.06;100643.34;5055500;28;20489;-75
2022/01/11 08:41:45;;;;;;;11.18;3.05;;;;;;;-9.93;73.15;100639.88;5039073;28;20493;-76
2022/01/11 08:44:11;;;;;;;10.52;3.40;;;;;;;-9.28;71.98;100631.13;5022669;28;20388;-75
2022/01/11 08:46:38;;;;;;;9.43;2.97;;;;;;;-8.85;70.49;100625.72;5055528;28;20044;-74
2022/01/11 08:49:12;;;;;;;17.15;3.95;;;;;;;-8.99;70.00;100624.03;5040893;28;20052;-74
2022/01/11 08:51:40;;;;;;;8.88;2.75;;;;;;;-8.89;70.42;100635.34;5039469;28;20055;-75
2022/01/11 08:54:06;;;;;;;9.15;2.55;;;;;;;-9.01;70.57;100646.72;5022916;28;20054;-75
2022/01/11 08:56:32;;;;;;;12.60;4.35;;;;;;;-8.99;70.78;100631.91;5039478;28;20044;-74
2022/01/11 08:58:59;;;;;;;9.90;3.13;;;;;;;-9.03;71.66;100632.78;5005827;28;20575;-75
2022/01/11 09:01:34;;;;;;;11.40;3.28;;;;;;;-9.13;72.01;100610.13;5055016;28;20051;-75
2022/01/11 09:04:02;;;;;;;11.38;3.45;;;;;;;-8.90;70.13;100617.03;5055380;28;20060;-75
2022/01/11 09:06:29;;;;;;;14.15;4.20;;;;;;;-8.39;69.81;100630.75;5039127;28;20048;-75
2022/01/11 09:08:55;;;;;;;11.40;3.10;;;;;;;-8.13;67.54;100626.19;5007300;28;20040;-75
2022/01/11 09:11:21;;;;;;;11.73;3.53;;;;;;;-8.02;67.25;100640.09;5055211;28;20128;-75
2022/01/11 09:13:49;;;;;;;13.25;3.67;;;;;;;-8.21;67.88;100625.38;5023178;28;20068;-74
2022/01/11 09:16:17;;;;;;;11.20;3.90;;;;;;;-9.03;68.10;100564.69;5024633;28;20124;-74
2022/01/11 09:18:44;;;;;;;15.57;5.25;;;;;;;-8.79;69.12;100626.56;5056739;28;20075;-75
2022/01/11 09:21:10;;;;;;;11.52;3.50;;;;;;;-8.53;68.79;100586.25;5008397;28;20048;-74
2022/01/11 09:23:38;;;;;;;17.08;3.90;;;;;;;-7.99;67.56;100647.06;5054722;28;20496;-74
2022/01/11 09:26:04;;;;;;;10.90;3.17;;;;;;;-7.91;66.37;100633.91;5038742;28;20049;-74
2022/01/11 09:28:36;;;;;;;12.63;3.40;;;;;;;-8.29;67.08;100653.41;5058097;28;20051;-75
2022/01/11 09:31:03;;;;;;;12.45;3.38;;;;;;;-8.57;68.37;100622.09;5023802;28;20457;-75
2022/01/11 09:33:29;;;;;;;10.50;3.40;;;;;;;-8.42;68.00;100649.13;5024161;28;20044;-75
2022/01/11 09:35:55;;;;;;;11.15;3.75;;;;;;;-8.58;67.80;100641.34;5055113;28;20056;-75
2022/01/11 09:38:24;;;;;;;14.15;3.88;;;;;;;-8.48;68.37;100646.53;5038650;28;20127;-75
2022/01/11 09:40:54;;;;;;;11.88;3.60;;;;;;;-7.42;65.58;100634.38;5055061;28;20060;-75
2022/01/11 09:43:22;;;;;;;13.02;3.80;;;;;;;-6.59;62.49;100646.56;5024107;28;20072;-76
2022/01/11 09:45:52;;;;;;;10.93;3.00;;;;;;;-6.82;61.55;100620.56;5058013;28;20056;-77
2022/01/11 09:48:24;;;;;;;11.93;4.25;;;;;;;-7.53;64.39;100646.72;5058383;28;20139;-74
2022/01/11 09:50:51;;;;;;;12.20;3.22;;;;;;;-7.79;64.73;100631.16;5045328;28;20052;-75
2022/01/11 09:53:17;;;;;;;12.45;3.50;;;;;;;-8.36;65.87;100630.72;5046186;28;20049;-75
2022/01/11 09:55:47;;;;;;;19.65;7.63;;;;;;;-8.60;67.06;100669.28;5028647;28;20040;-75
2022/01/11 09:58:14;;;;;;;10.52;3.53;;;;;;;-8.91;68.24;100607.44;5056463;28;20158;-75
2022/01/11 10:01:04;;;;;;;11.75;3.35;;;;;;;-9.06;68.75;100634.53;5012433;28;20119;-75
2022/01/11 10:04:11;;;;;;;13.43;3.60;;;;;;;-9.05;69.47;100671.19;4945320;28;20043;-75
2022/01/11 10:07:03;;;;;;;12.98;3.45;;;;;;;-9.23;70.30;100656.38;5028943;28;20052;-75
2022/01/11 10:09:30;;;;;;;11.25;3.78;;;;;;;-9.31;70.35;100646.81;5040742;28;20040;-74
2022/01/11 10:12:00;;;;;;;12.07;3.65;;;;;;;-9.70;70.63;100625.03;5042357;28;20053;-74
2022/01/11 10:14:35;;;;;;;11.30;4.22;;;;;;;-9.82;71.60;100654.69;5041393;28;20051;-75
2022/01/11 10:17:11;;;;;;;10.63;3.63;;;;;;;-9.91;71.97;100648.59;5027681;28;20522;-75
2022/01/11 10:19:41;;;;;;;10.70;3.58;;;;;;;-9.57;72.35;100666.03;5024148;28;20036;-76
2022/01/11 10:22:13;;;;;;;9.13;3.42;;;;;;;-9.52;71.80;100673.88;5040680;28;20095;-75
2022/01/11 10:24:46;;;;;;;10.13;3.50;;;;;;;-9.86;72.59;100679.13;5061714;28;20052;-75
2022/01/11 10:27:16;;;;;;;8.88;3.15;;;;;;;-9.76;72.88;100672.13;5048655;28;20055;-75
2022/01/11 10:30:01;;;;;;;11.77;3.80;;;;;;;-9.86;72.48;100673.03;5062477;28;20048;-76
2022/01/11 10:32:36;;;;;;;11.82;3.53;;;;;;;-9.76;72.18;100653.81;5045764;28;20044;-75
2022/01/11 10:35:29;;;;;;;12.43;3.95;;;;;;;-9.78;72.64;100672.13;5061687;28;20044;-74
2022/01/11 10:38:00;;;;;;;12.13;3.30;;;;;;;-9.99;72.23;100625.03;5034461;28;20144;-74
2022/01/11 10:40:34;;;;;;;11.90;3.00;;;;;;;-9.84;72.71;100686.94;5080181;28;20040;-74
2022/01/11 10:43:07;;;;;;;11.60;2.78;;;;;;;-9.93;72.28;100693.06;5058577;28;20150;-74
2022/01/11 10:45:34;;;;;;;;;;;;;;;-9.95;71.82;100690.41;5042108;28;20052;-75
2022/01/11 10:48:04;;;;;;;7.65;2.47;;;;;;;-9.87;72.40;100681.72;5043206;28;19958;-75
2022/01/11 10:50:38;;;;;;;11.98;3.78;;;;;;;-9.97;72.81;100686.94;5044224;28;20040;-75
2022/01/11 10:53:19;;;;;;;12.40;4.20;;;;;;;-10.07;73.33;100676.47;5024774;28;20334;-75
2022/01/11 10:55:52;;;;;;;11.75;3.83;;;;;;;-10.16;72.49;100685.19;5043550;28;20076;-75
2022/01/11 10:58:18;;;;;;;13.05;3.85;;;;;;;-10.30;73.24;100655.56;5045500;28;20127;-75
2022/01/11 11:00:47;;;;;;;8.02;2.53;;;;;;;-10.30;72.31;100689.53;5040546;28;20404;-74
2022/01/11 11:03:18;;;;;;;11.13;3.05;;;;;;;-10.08;73.36;100699.13;5056890;28;20094;-74
2022/01/11 11:06:05;;;;;;;11.20;3.70;;;;;;;-10.12;72.66;100700.00;5043663;28;20066;-74
2022/01/11 11:08:35;;;;;;;12.80;4.22;;;;;;;-10.70;73.61;100627.56;5025902;28;20477;-74
2022/01/11 11:11:23;;;;;;;15.18;3.50;;;;;;;-10.62;73.80;100645.88;5036487;28;20480;-74
2022/01/11 11:14:12;;;;;;;12.40;3.38;;;;;;;-10.11;73.98;100688.66;5036009;28;20045;-75
2022/01/11 11:16:44;;;;;;;9.30;2.45;;;;;;;-10.69;74.11;100660.66;5042746;28;20051;-75
2022/01/11 11:19:13;;;;;;;12.77;3.47;;;;;;;-10.31;73.34;100690.38;5040277;28;20075;-74
2022/01/11 11:22:06;;;;;;;11.00;2.85;;;;;;;-10.33;73.73;100686.91;5041965;28;20143;-74
2022/01/11 11:24:31;;;;;;;11.43;3.92;;;;;;;-10.32;73.26;100693.88;5040575;28;20097;-75
2022/01/11 11:26:57;;;;;;;11.07;3.35;;;;;;;-10.27;72.93;100692.16;5057876;28;20416;-74